Aklavik, Northwest Territories

1:12 PM MST on December 19, 2014 (GMT -0700)
Aklavik | Change Station
CLOSE
Current Station
Airport
Location: Aklavik,
Elevation: 23 ft
Nearby Weather Stations

Elev 23 ft 68.22 °N, 135.01 °W | Updated 12 minutes ago

Overcast
Overcast
3 °F
Feels Like -4 °F
N
4
Wind Variable Wind from South

Today is forecast to be nearly the same temperature as yesterday.

Today
High -- | Low -- °F
--% Chance of Precip.
Yesterday
High -- | Low -- °F
Precip. -- in
1:24 PM 2:29 PM
Waning Crescent, 6% visible
Pressure 29.79 in
Visibility 15.0 miles
Clouds Overcast 2000 ft
Windchill -4 °F
Dew Point 0 °F
Humidity 85%
Rainfall 0.00 in
Snow Depth Not available.
UV 0 out of 12
Pollen Not available.
Air Quality Not available.
Flu Activity Not available.
METAR CYKD 192000Z 17003KT 15SM OVC020 M16/M18 A2978 RMK SC8 SLP086

More Conditions Fewer Conditions

Pressure 29.79 in
Visibility 15.0 miles
Clouds Overcast 2000 ft
Windchill -4 °F
Dew Point 0 °F
Humidity 85%
Rainfall 0.00 in
Snow Depth Not available.
UV 0 out of 12
Pollen Not available.
Air Quality Not available.
Flu Activity Not available.
METAR CYKD 192000Z 17003KT 15SM OVC020 M16/M18 A2978 RMK SC8 SLP086

More Conditions Fewer Conditions

10-Day Weather Forecast

Almanac

Astronomy

Dec. 19, 2014 Rise Set
Actual Time
Civil Twilight
Nautical Twilight
Astronomical Twilight
Moon
Length of Visible Light
Length of Day
Tomorrow will be .
, % of the Moon is Illuminated

Today's Extremes

Country Highs Country Lows

Community

WunderPhotos

Upload Photos

1,779,048 photos uploaded!

WunderBlogs® & News

Nearby

Air Quality

  Air Quality AQ Index Pollutant
Not available.

Snow Depth

Station Depth Elevation

Earthquake Activity

City Distance Mag. Time & Date
Minimum magnitude displayed is 2.5.

Coastal Water Temperatures

Place Temperature

Nearby Weather Stations